createdAt,value
2023-04-15T19:31:00.422Z,97.46
2023-04-15T19:33:31.132Z,97.48
2023-04-15T19:35:59.256Z,97.55
2023-04-15T19:38:27.193Z,96.95
2023-04-15T19:40:55.200Z,97.14
2023-04-15T19:43:23.104Z,97.14
2023-04-15T19:45:52.900Z,97.07
2023-04-15T19:48:23.703Z,97.64
2023-04-15T19:50:51.668Z,97.32
2023-04-15T19:53:19.613Z,97.51
2023-04-15T19:55:48.407Z,96.61
2023-04-15T19:58:16.570Z,96.62
2023-04-15T20:00:44.489Z,96.28
2023-04-15T20:03:12.696Z,95.88
2023-04-15T20:05:42.014Z,95.50
2023-04-15T20:08:10.287Z,95.07
2023-04-15T20:10:38.485Z,95.32
2023-04-15T20:13:06.563Z,95.33
2023-04-15T20:15:34.578Z,93.41
2023-04-15T20:18:02.614Z,92.88
2023-04-15T20:20:30.553Z,92.80
2023-04-15T20:22:59.835Z,91.98
2023-04-15T20:25:27.869Z,92.27
2023-04-15T20:27:56.765Z,91.43
2023-04-15T20:30:25.517Z,91.27
2023-04-15T20:32:53.422Z,91.11
2023-04-15T20:35:21.457Z,91.23
2023-04-15T20:37:52.626Z,91.37
2023-04-15T20:40:22.883Z,90.87
2023-04-15T20:42:50.794Z,91.17
2023-04-15T20:45:18.907Z,91.30
2023-04-15T20:47:46.839Z,91.65
2023-04-15T20:50:14.962Z,91.67
2023-04-15T20:52:42.922Z,91.06
2023-04-15T20:55:11.177Z,91.64
2023-04-15T20:57:40.682Z,91.99
2023-04-15T21:00:10.932Z,91.20
2023-04-15T21:02:39.066Z,91.21
2023-04-15T21:05:07.870Z,91.52
2023-04-15T21:07:35.797Z,91.84
2023-04-15T21:10:03.769Z,91.58
2023-04-15T21:12:31.981Z,92.36
2023-04-15T21:15:01.672Z,91.32
2023-04-15T21:17:29.698Z,91.60
2023-04-15T21:19:57.678Z,92.29
2023-04-15T21:22:26.250Z,92.27
2023-04-15T21:24:54.124Z,92.36
2023-04-15T21:27:22.010Z,92.77
2023-04-15T21:29:49.970Z,93.01
2023-04-15T21:32:19.385Z,93.25
2023-04-15T21:34:47.412Z,93.86
2023-04-15T21:37:15.313Z,94.45
2023-04-15T21:39:43.252Z,95.11
2023-04-15T21:42:11.204Z,94.97
2023-04-15T21:44:39.203Z,95.28
2023-04-15T21:47:07.190Z,96.21
2023-04-15T21:49:36.644Z,96.37
2023-04-15T21:52:06.245Z,96.41
2023-04-15T21:54:34.281Z,97.22
2023-04-15T21:57:02.231Z,97.23
2023-04-15T21:59:30.156Z,97.30
2023-04-15T22:01:58.287Z,97.55
2023-04-15T22:04:26.533Z,98.17
2023-04-15T22:07:01.466Z,98.38
2023-04-15T22:09:29.375Z,98.49
2023-04-15T22:11:59.270Z,98.67
2023-04-15T22:14:28.286Z,98.85
2023-04-15T22:16:56.670Z,98.76
2023-04-15T22:19:25.864Z,99.68
2023-04-15T22:21:55.222Z,99.65
2023-04-15T22:24:38.914Z,99.42
2023-04-15T22:27:08.324Z,99.86
2023-04-15T22:29:36.340Z,99.93
2023-04-15T22:32:04.298Z,100.00
2023-04-15T22:34:32.226Z,100.00
2023-04-15T22:37:01.586Z,100.00
2023-04-15T22:39:29.534Z,100.00
2023-04-15T22:41:57.754Z,100.00
2023-04-15T22:44:25.750Z,100.00
2023-04-15T22:46:53.720Z,100.00
2023-04-15T22:49:21.571Z,100.00
2023-04-15T22:51:49.512Z,100.00
2023-04-15T22:54:18.743Z,100.00
2023-04-15T22:56:46.630Z,100.00
2023-04-15T22:59:14.494Z,100.00
2023-04-15T23:01:42.462Z,100.00
2023-04-15T23:04:10.959Z,100.00
2023-04-15T23:06:52.222Z,100.00
2023-04-15T23:09:22.410Z,100.00
2023-04-15T23:11:50.533Z,100.00
2023-04-15T23:14:18.420Z,100.00
2023-04-15T23:16:46.394Z,100.00
2023-04-15T23:19:14.294Z,100.00
2023-04-15T23:21:42.315Z,100.00
2023-04-15T23:24:10.416Z,100.00
2023-04-15T23:26:39.749Z,100.00
2023-04-15T23:29:10.957Z,100.00
2023-04-15T23:31:39.090Z,100.00
2023-04-15T23:34:07.178Z,100.00
2023-04-15T23:36:35.136Z,100.00
2023-04-15T23:39:03.062Z,100.00
2023-04-15T23:41:31.036Z,100.00
2023-04-15T23:44:00.323Z,100.00
2023-04-15T23:46:28.262Z,100.00
2023-04-15T23:48:56.237Z,100.00
2023-04-15T23:51:24.141Z,100.00
2023-04-15T23:53:53.008Z,100.00
2023-04-15T23:56:21.307Z,100.00
2023-04-15T23:58:49.230Z,100.00
